Time;durP1;ratioP1;P1;durP2;ratioP2;P2;SDS_P1;SDS_P2;PMS_P1;PMS_P2;Temp;Humidity;BMP_temperature;BMP_pressure;BME280_temperature;BME280_humidity;BME280_pressure;Samples;Min_cycle;Max_cycle;Signal;HPM_P1;HPM_P2
2023/07/23 00:02:12;;;;;;;;;;;;;;;32.03;52.89;100725.81;5104505;28;19916;-50
2023/07/23 00:04:37;;;;;;;;;;;;;;;31.40;55.42;100737.91;5100726;28;20326;-50
2023/07/23 00:07:03;;;;;;;;;;;;;;;31.29;56.29;100730.03;5101552;28;19919;-50
2023/07/23 00:09:28;;;;;;;;;;;;;;;30.30;62.77;100726.69;5099782;28;19917;-53
2023/07/23 00:11:54;;;;;;;;;;;;;;;30.52;61.24;100727.53;5095619;28;19923;-55
2023/07/23 00:14:20;;;;;;;;;;;;;;;30.64;61.20;100722.09;5096871;28;20038;-53
2023/07/23 00:16:47;;;;;;;;;;;;;;;30.11;63.21;100722.41;5098277;28;19935;-54
2023/07/23 00:19:19;;;;;;;;;;;;;;;30.85;59.90;100713.84;5095299;28;19927;-52
2023/07/23 00:21:44;;;;;;;;;;;;;;;32.36;55.91;100713.84;5095391;28;19920;-52
2023/07/23 00:24:09;;;;;;;;;;;;;;;30.88;58.01;100715.09;5096836;28;20007;-53
2023/07/23 00:26:35;;;;;;;;;;;;;;;30.31;62.72;100711.75;5101127;28;19917;-53
2023/07/23 00:29:00;;;;;;;;;;;;;;;30.76;60.95;100708.38;5095446;28;19947;-56
2023/07/23 00:31:27;;;;;;;;;;;;;;;30.89;58.98;100709.25;5095350;28;19924;-55
2023/07/23 00:33:52;;;;;;;;;;;;;;;31.48;57.87;100701.09;5077443;28;19924;-51
2023/07/23 00:36:18;;;;;;;;;;;;;;;31.08;58.12;100693.34;5077367;28;19938;-53
2023/07/23 00:38:43;;;;;;;;;;;;;;;31.93;55.43;100691.13;5077606;28;19916;-54
2023/07/23 00:41:09;;;;;;;;;;;;;;;31.83;53.63;100686.91;5107501;28;19917;-51
2023/07/23 00:43:34;;;;;;;;;;;;;;;31.08;57.10;100690.56;5111348;28;19916;-52
2023/07/23 00:46:00;;;;;;;;;;;;;;;30.45;59.52;100686.66;5099079;28;19924;-52
2023/07/23 00:48:25;;;;;;;;;;;;;;;30.66;60.37;100675.66;5101517;28;19916;-50
2023/07/23 00:50:51;;;;;;;;;;;;;;;31.11;56.56;100663.09;5108789;28;19951;-51
2023/07/23 00:53:17;;;;;;;;;;;;;;;30.46;60.73;100653.25;5110066;28;19924;-53
2023/07/23 00:55:43;;;;;;;;;;;;;;;29.40;65.09;100655.66;5104787;28;20010;-52
2023/07/23 00:58:08;;;;;;;;;;;;;;;31.44;57.15;100653.19;5095427;28;19916;-50
2023/07/23 01:00:34;;;;;;;;;;;;;;;31.33;56.36;100653.63;5098066;28;19912;-52
2023/07/23 01:03:00;;;;;;;;;;;;;;;31.28;56.65;100637.28;5076969;28;19917;-51
2023/07/23 01:05:26;;;;;;;;;;;;;;;31.95;52.75;100643.81;5077113;28;19980;-48
2023/07/23 01:07:52;;;;;;;;;;;;;;;32.87;49.41;100648.88;5101332;28;19942;-54
2023/07/23 01:10:19;;;;;;;;;;;;;;;30.62;56.98;100627.81;5097096;28;19927;-54
2023/07/23 01:12:45;;;;;;;;;;;;;;;30.66;56.48;100620.47;5110810;28;19921;-49
2023/07/23 01:15:10;;;;;;;;;;;;;;;30.41;58.64;100620.31;5110546;28;19947;-52
2023/07/23 01:17:37;;;;;;;;;;;;;;;30.95;57.45;100616.00;5094663;28;19927;-52
2023/07/23 01:20:06;;;;;;;;;;;;;;;31.26;54.72;100608.41;5095805;28;19916;-50
2023/07/23 01:22:32;;;;;;;;;;;;;;;31.28;54.26;100612.41;5085333;28;19912;-52
2023/07/23 01:24:57;;;;;;;;;;;;;;;31.81;52.00;100609.00;5117736;28;19916;-49
2023/07/23 01:27:23;;;;;;;;;;;;;;;31.42;53.64;100608.53;5099905;28;19950;-50
2023/07/23 01:29:48;;;;;;;;;;;;;;;31.25;55.16;100599.28;5107173;28;19920;-55
2023/07/23 01:32:14;;;;;;;;;;;;;;;30.74;56.14;100597.53;5098520;28;19985;-49
2023/07/23 01:34:39;;;;;;;;;;;;;;;30.86;57.84;100594.00;5098702;28;19921;-54
2023/07/23 01:37:05;;;;;;;;;;;;;;;30.53;57.53;100582.94;5111453;28;19916;-49
2023/07/23 01:39:32;;;;;;;;;;;;;;;29.78;62.48;100582.47;5125502;28;19912;-51
2023/07/23 01:41:57;;;;;;;;;;;;;;;30.93;56.37;100582.41;5101529;28;19975;-51
2023/07/23 01:44:23;;;;;;;;;;;;;;;31.38;55.68;100582.75;5080764;28;19922;-52
2023/07/23 01:46:50;;;;;;;;;;;;;;;30.72;56.65;100575.00;5123738;28;19953;-51
2023/07/23 01:49:15;;;;;;;;;;;;;;;31.26;55.90;100576.06;5081810;28;19917;-52
2023/07/23 01:51:41;;;;;;;;;;;;;;;30.99;56.21;100571.94;5098374;28;19923;-52
2023/07/23 01:54:06;;;;;;;;;;;;;;;30.62;57.86;100561.59;5098351;28;19920;-50
2023/07/23 01:56:32;;;;;;;;;;;;;;;30.99;55.84;100561.72;5080730;28;19916;-52
2023/07/23 01:58:57;;;;;;;;;;;;;;;30.88;55.97;100558.59;5103110;28;20034;-52
2023/07/23 02:01:23;;;;;;;;;;;;;;;30.62;56.58;100556.06;5114051;28;19925;-51
2023/07/23 02:03:48;;;;;;;;;;;;;;;32.01;52.72;100562.22;5098176;28;19995;-49
2023/07/23 02:06:14;;;;;;;;;;;;;;;31.70;53.93;100555.34;5100719;28;19921;-51
2023/07/23 02:08:39;;;;;;;;;;;;;;;30.32;59.49;100547.88;5106553;28;19938;-52
2023/07/23 02:11:06;;;;;;;;;;;;;;;30.19;60.00;100539.53;5097578;28;19996;-51
2023/07/23 02:13:31;;;;;;;;;;;;;;;30.16;60.55;100542.97;5097875;28;19931;-52
2023/07/23 02:15:57;;;;;;;;;;;;;;;30.10;60.96;100525.03;5113838;28;19980;-51
2023/07/23 02:18:23;;;;;;;;;;;;;;;30.60;57.16;100522.47;5068853;28;19924;-48
2023/07/23 02:20:49;;;;;;;;;;;;;;;31.90;54.83;100526.78;5098189;28;19924;-50
2023/07/23 02:23:15;;;;;;;;;;;;;;;30.28;56.86;100524.91;5113728;28;19916;-53
2023/07/23 02:25:41;;;;;;;;;;;;;;;30.72;55.55;100525.31;5116891;28;19915;-54
2023/07/23 02:28:08;;;;;;;;;;;;;;;30.96;55.27;100526.50;5104402;28;19994;-49
2023/07/23 02:30:33;;;;;;;;;;;;;;;30.36;56.67;100526.75;5080061;28;19924;-48
2023/07/23 02:32:59;;;;;;;;;;;;;;;30.86;57.55;100513.97;5097321;28;19930;-53
2023/07/23 02:35:24;;;;;;;;;;;;;;;28.62;65.22;100506.06;5097313;28;19951;-51
2023/07/23 02:37:50;;;;;;;;;;;;;;;28.30;68.29;100492.53;5104758;28;19917;-49
2023/07/23 02:40:16;;;;;;;;;;;;;;;29.36;63.39;100491.44;5079064;28;20306;-51
2023/07/23 02:42:41;;;;;;;;;;;;;;;29.41;62.25;100497.59;5096421;28;19924;-47
2023/07/23 02:45:07;;;;;;;;;;;;;;;29.49;62.10;100482.13;5096272;28;19917;-51
2023/07/23 02:47:32;;;;;;;;;;;;;;;30.28;59.79;100489.03;5100247;28;19916;-51
2023/07/23 02:49:57;;;;;;;;;;;;;;;30.18;60.25;100482.78;5084016;28;19912;-51
2023/07/23 02:52:23;;;;;;;;;;;;;;;30.11;59.67;100477.00;5103476;28;19957;-51
2023/07/23 02:54:49;;;;;;;;;;;;;;;29.39;63.38;100468.72;5112035;28;19927;-55
2023/07/23 02:57:14;;;;;;;;;;;;;;;29.28;65.17;100466.34;5096773;28;19931;-51
2023/07/23 02:59:40;;;;;;;;;;;;;;;29.38;63.42;100475.38;5095848;28;19924;-55
2023/07/23 03:02:05;;;;;;;;;;;;;;;29.44;64.10;100463.06;5112202;28;19916;-54
2023/07/23 03:04:31;;;;;;;;;;;;;;;28.94;66.28;100459.88;5111991;28;19923;-54
2023/07/23 03:06:56;;;;;;;;;;;;;;;29.48;63.10;100464.81;5111972;28;19924;-53
2023/07/23 03:09:22;;;;;;;;;;;;;;;30.74;56.47;100469.75;5095648;28;19984;-54
2023/07/23 03:11:48;;;;;;;;;;;;;;;32.72;50.30;100465.78;5086517;28;19932;-55
2023/07/23 03:14:13;;;;;;;;;;;;;;;33.03;48.46;100467.00;5095560;28;19925;-52
2023/07/23 03:16:39;;;;;;;;;;;;;;;31.60;52.22;100462.66;5095874;28;19923;-51
2023/07/23 03:19:04;;;;;;;;;;;;;;;31.53;51.97;100463.22;5095630;28;19917;-52
2023/07/23 03:21:30;;;;;;;;;;;;;;;31.54;50.90;100462.06;5077844;28;19950;-52
2023/07/23 03:23:55;;;;;;;;;;;;;;;28.85;63.54;100451.66;5095497;28;19917;-51
2023/07/23 03:26:21;;;;;;;;;;;;;;;29.92;60.55;100449.91;5111490;28;19920;-49
2023/07/23 03:28:46;;;;;;;;;;;;;;;30.06;57.80;100446.91;5111304;28;19923;-50
2023/07/23 03:31:12;;;;;;;;;;;;;;;30.29;58.16;100444.56;5095670;28;19916;-54
2023/07/23 03:33:37;;;;;;;;;;;;;;;29.25;64.31;100436.72;5094123;28;19984;-54
2023/07/23 03:36:03;;;;;;;;;;;;;;;29.60;61.98;100433.78;5095433;28;19920;-53
2023/07/23 03:38:28;;;;;;;;;;;;;;;29.10;64.88;100432.59;5095345;28;20369;-53
2023/07/23 03:40:54;;;;;;;;;;;;;;;28.90;66.59;100429.44;5010173;28;2410584;-46
2023/07/23 03:43:20;;;;;;;;;;;;;;;29.29;63.64;100436.88;5111537;28;19980;-51
2023/07/23 03:45:46;;;;;;;;;;;;;;;28.97;64.29;100433.66;5112257;28;19984;-49
2023/07/23 03:48:11;;;;;;;;;;;;;;;29.53;63.41;100421.69;5081622;28;19923;-54
2023/07/23 03:50:36;;;;;;;;;;;;;;;28.95;64.29;100424.88;5074593;28;19920;-46
2023/07/23 03:53:02;;;;;;;;;;;;;;;29.60;60.64;100422.75;5076850;28;19921;-51
2023/07/23 03:55:28;;;;;;;;;;;;;;;29.87;59.43;100433.56;5078065;28;19942;-48
2023/07/23 03:57:55;;;;;;;;;;;;;;;29.77;59.68;100434.81;5101881;28;19976;-50
2023/07/23 04:00:20;;;;;;;;;;;;;;;29.94;59.55;100433.84;5118085;28;19920;-49
2023/07/23 04:02:46;;;;;;;;;;;;;;;28.73;65.48;100427.53;5095799;28;19987;-52
2023/07/23 04:05:11;;;;;;;;;;;;;;;30.05;58.37;100439.78;5095376;28;19976;-53
2023/07/23 04:07:37;;;;;;;;;;;;;;;28.30;66.43;100433.97;5095635;28;19916;-47
2023/07/23 04:10:03;;;;;;;;;;;;;;;29.25;62.69;100433.19;5095406;28;19924;-53
2023/07/23 04:12:28;;;;;;;;;;;;;;;29.39;60.75;100433.72;5096602;28;19942;-51
2023/07/23 04:14:54;;;;;;;;;;;;;;;28.26;64.00;100427.50;5095549;28;19917;-51
2023/07/23 04:17:19;;;;;;;;;;;;;;;27.67;71.83;100423.28;5113967;28;20374;-49
2023/07/23 04:19:45;;;;;;;;;;;;;;;29.14;65.37;100430.78;5095569;28;19985;-53
2023/07/23 04:22:11;;;;;;;;;;;;;;;29.18;60.43;100425.44;5094763;28;19946;-48
2023/07/23 04:24:36;;;;;;;;;;;;;;;28.27;63.86;100423.63;5048636;28;19955;-50
2023/07/23 04:27:01;;;;;;;;;;;;;;;28.24;66.30;100421.53;5075224;28;19923;-53
2023/07/23 04:29:26;;;;;;;;;;;;;;;29.90;56.37;100427.41;5080040;28;20176;-47
2023/07/23 04:31:52;;;;;;;;;;;;;;;30.48;53.67;100432.22;5106179;28;19921;-50
2023/07/23 04:34:17;;;;;;;;;;;;;;;30.91;52.78;100435.66;5077784;28;19923;-51
2023/07/23 04:36:43;;;;;;;;;;;;;;;30.99;49.68;100436.66;5095202;28;19932;-50
2023/07/23 04:39:09;;;;;;;;;;;;;;;30.15;52.58;100433.84;5095054;28;19916;-52
2023/07/23 04:41:35;;;;;;;;;;;;;;;29.87;54.03;100437.13;5082212;28;19927;-47
2023/07/23 04:44:01;;;;;;;;;;;;;;;30.12;52.71;100442.00;5095106;28;19916;-54
2023/07/23 04:46:26;;;;;;;;;;;;;;;30.87;50.91;100434.69;5094592;28;19996;-49
2023/07/23 04:48:52;;;;;;;;;;;;;;;29.76;52.19;100435.94;5100988;28;19921;-51
2023/07/23 04:51:18;;;;;;;;;;;;;;;28.61;59.28;100435.69;5078586;28;19920;-53
2023/07/23 04:53:44;;;;;;;;;;;;;;;28.66;57.64;100426.44;5094930;28;19928;-52
2023/07/23 04:56:09;;;;;;;;;;;;;;;28.87;55.96;100424.59;5094740;28;19924;-52
2023/07/23 04:58:35;;;;;;;;;;;;;;;29.67;53.86;100438.78;5077587;28;19917;-51
2023/07/23 05:01:08;;;;;;;;;;;;;;;29.56;52.94;100432.84;5094842;28;19984;-49
2023/07/23 05:03:33;;;;;;;;;;;;;;;29.76;54.79;100430.44;5095262;28;20349;-50
2023/07/23 05:06:01;;;;;;;;;;;;;;;30.05;52.71;100428.75;5094733;28;19912;-49
2023/07/23 05:08:26;;;;;;;;;;;;;;;30.01;51.81;100436.06;5094880;28;19924;-49
2023/07/23 05:10:57;;;;;;;;;;;;;;;30.25;51.69;100429.84;5095100;28;19975;-49
2023/07/23 05:13:22;;;;;;;;;;;;;;;29.94;54.05;100435.78;5101665;28;19916;-50
2023/07/23 05:15:47;;;;;;;;;;;;;;;30.15;52.43;100430.28;5094838;28;19944;-49
2023/07/23 05:18:13;;;;;;;;;;;;;;;30.76;50.20;100426.06;5094506;28;19942;-52
2023/07/23 05:20:39;;;;;;;;;;;;;;;29.43;53.70;100428.38;5094766;28;19916;-52
2023/07/23 05:23:04;;;;;;;;;;;;;;;29.65;53.34;100429.22;5095968;28;19916;-48
2023/07/23 05:25:29;;;;;;;;;;;;;;;29.99;52.83;100421.81;5076942;28;19946;-49
2023/07/23 05:27:55;;;;;;;;;;;;;;;29.82;53.64;100426.31;5094637;28;19917;-48
2023/07/23 05:30:21;;;;;;;;;;;;;;;30.00;52.52;100431.69;5094099;28;19928;-51
2023/07/23 05:32:47;;;;;;;;;;;;;;;29.39;56.54;100427.41;5094777;28;19923;-50
2023/07/23 05:35:12;;;;;;;;;;;;;;;30.80;51.47;100427.00;5077077;28;19917;-48
2023/07/23 05:37:38;;;;;;;;;;;;;;;30.73;50.97;100426.75;5097065;28;19938;-53
2023/07/23 05:40:04;;;;;;;;;;;;;;;29.67;54.83;100421.41;5095690;28;19979;-51
2023/07/23 05:42:30;;;;;;;;;;;;;;;29.20;57.81;100423.16;5106193;28;19920;-48
2023/07/23 05:44:55;;;;;;;;;;;;;;;29.76;54.78;100438.69;5095323;28;19955;-47
2023/07/23 05:47:21;;;;;;;;;;;;;;;29.32;56.56;100425.19;5090235;28;19927;-49
2023/07/23 05:49:46;;;;;;;;;;;;;;;29.39;55.38;100443.94;5095262;28;19923;-52
2023/07/23 05:52:12;;;;;;;;;;;;;;;29.06;57.47;100445.41;5101880;28;19920;-47
2023/07/23 05:54:37;;;;;;;;;;;;;;;29.10;58.30;100423.53;5076950;28;19916;-48
2023/07/23 05:57:02;;;;;;;;;;;;;;;28.90;57.71;100434.94;5094369;28;19970;-48
2023/07/23 05:59:28;;;;;;;;;;;;;;;29.15;58.47;100424.13;5102646;28;19943;-52
2023/07/23 06:01:53;;;;;;;;;;;;;;;28.57;58.97;100415.47;5098209;28;19942;-47
2023/07/23 06:04:20;;;;;;;;;;;;;;;27.39;68.67;100412.56;5091902;28;19983;-51
2023/07/23 06:06:45;;;;;;;;;;;;;;;27.08;74.91;100413.47;5092548;28;19920;-49
2023/07/23 06:09:11;;;;;;;;;;;;;;;27.27;73.11;100424.16;5097748;28;19916;-47
2023/07/23 06:11:37;;;;;;;;;;;;;;;27.63;69.57;100412.16;5097871;28;19920;-47
2023/07/23 06:14:03;;;;;;;;;;;;;;;27.86;68.27;100407.31;5095718;28;19916;-51
2023/07/23 06:16:31;;;;;;;;;;;;;;;27.18;71.82;100415.91;5097743;28;19924;-51
2023/07/23 06:18:57;;;;;;;;;;;;;;;27.51;70.62;100409.19;5102952;28;19946;-49
2023/07/23 06:21:23;;;;;;;;;;;;;;;27.39;72.39;100418.06;5097614;28;19916;-50
2023/07/23 06:23:48;;;;;;;;;;;;;;;27.75;72.01;100420.56;5097855;28;19967;-48
2023/07/23 06:26:14;;;;;;;;;;;;;;;27.21;75.90;100426.25;5097386;28;19921;-52
2023/07/23 06:28:39;;;;;;;;;;;;;;;28.25;69.14;100418.44;5097410;28;19916;-52
2023/07/23 06:31:05;;;;;;;;;;;;;;;27.05;76.99;100434.94;5097704;28;19988;-51
2023/07/23 06:33:30;;;;;;;;;;;;;;;27.11;77.58;100415.56;5096907;28;19923;-50
2023/07/23 06:35:56;;;;;;;;;;;;;;;26.54;82.26;100430.81;5097488;28;19942;-48
2023/07/23 06:38:21;;;;;;;;;;;;;;;27.24;78.70;100433.03;5100155;28;19922;-51
2023/07/23 06:40:48;;;;;;;;;;;;;;;26.77;81.81;100448.84;5108302;28;19921;-46
2023/07/23 06:43:16;;;;;;;;;;;;;;;27.29;82.22;100441.94;5099621;28;19927;-47
2023/07/23 06:45:42;;;;;;;;;;;;;;;27.42;75.77;100448.44;5097513;28;19917;-48
2023/07/23 06:48:08;;;;;;;;;;;;;;;27.25;89.74;100440.16;5097378;28;19912;-48
2023/07/23 06:50:33;;;;;;;;;;;;;;;27.48;77.41;100471.06;5106441;28;20011;-48
2023/07/23 06:52:59;;;;;;;;;;;;;;;26.63;86.02;100451.63;5097032;28;19932;-49
2023/07/23 06:55:24;;;;;;;;;;;;;;;26.47;92.17;100440.25;5079826;28;19917;-51
2023/07/23 06:57:50;;;;;;;;;;;;;;;27.10;87.56;100449.63;5097131;28;19917;-48
2023/07/23 07:00:15;;;;;;;;;;;;;;;26.87;88.56;100441.47;5097144;28;19951;-47
2023/07/23 07:02:41;;;;;;;;;;;;;;;27.64;81.92;100446.72;5096890;28;19939;-49
2023/07/23 07:05:06;;;;;;;;;;;;;;;27.14;87.62;100456.91;5097104;28;19923;-52
2023/07/23 07:07:32;;;;;;;;;;;;;;;26.35;97.31;100445.53;5079151;28;19920;-51
2023/07/23 07:09:57;;;;;;;;;;;;;;;26.30;98.41;100437.44;5099787;28;20096;-50
2023/07/23 07:12:24;;;;;;;;;;;;;;;26.55;93.95;100459.84;5079119;28;19963;-52
2023/07/23 07:14:49;;;;;;;;;;;;;;;27.40;87.98;100450.69;5096542;28;20074;-53
2023/07/23 07:17:15;;;;;;;;;;;;;;;27.22;89.14;100449.84;5096583;28;19988;-51
2023/07/23 07:19:40;;;;;;;;;;;;;;;27.63;83.79;100448.66;5095214;28;19916;-51
2023/07/23 07:22:06;;;;;;;;;;;;;;;26.99;88.64;100435.38;5096478;28;19969;-52
2023/07/23 07:24:32;;;;;;;;;;;;;;;28.03;83.91;100438.66;5096674;28;19916;-50
2023/07/23 07:26:57;;;;;;;;;;;;;;;26.98;88.14;100467.50;5096536;28;19952;-50
2023/07/23 07:29:23;;;;;;;;;;;;;;;27.77;88.66;100439.47;5103457;28;19920;-49
2023/07/23 07:31:48;;;;;;;;;;;;;;;27.66;86.35;100440.91;5096045;28;19927;-50
2023/07/23 07:34:14;;;;;;;;;;;;;;;27.15;89.50;100446.75;5098454;28;19955;-51
2023/07/23 07:36:39;;;;;;;;;;;;;;;27.23;95.66;100451.47;5096410;28;19916;-53
2023/07/23 07:39:05;;;;;;;;;;;;;;;27.29;95.69;100446.63;5096134;28;19923;-51
2023/07/23 07:41:30;;;;;;;;;;;;;;;27.53;92.62;100443.47;5095756;28;19931;-50
2023/07/23 07:43:56;;;;;;;;;;;;;;;27.06;98.96;100443.97;5096010;28;19917;-49
2023/07/23 07:46:23;;;;;;;;;;;;;;;27.56;95.37;100437.34;5095805;28;19916;-51
2023/07/23 07:48:48;;;;;;;;;;;;;;;26.50;100.00;100430.59;5096179;28;20007;-50
2023/07/23 07:51:14;;;;;;;;;;;;;;;27.19;100.00;100439.47;5095456;28;19928;-52
2023/07/23 07:53:39;;;;;;;;;;;;;;;27.28;100.00;100456.81;5096122;28;19924;-50
2023/07/23 07:56:05;;;;;;;;;;;;;;;27.45;100.00;100449.72;5095898;28;19950;-52
2023/07/23 07:58:32;;;;;;;;;;;;;;;27.33;100.00;100448.41;5095824;28;19916;-51
2023/07/23 08:00:58;;;;;;;;;;;;;;;26.43;100.00;100449.44;5095510;28;19920;-52
2023/07/23 08:03:25;;;;;;;;;;;;;;;26.29;100.00;100444.00;5098174;28;19920;-50
2023/07/23 08:05:51;;;;;;;;;;;;;;;26.69;100.00;100452.31;5098529;28;19928;-52
2023/07/23 08:08:19;;;;;;;;;;;;;;;28.02;96.51;100442.53;5095487;28;19916;-50
2023/07/23 08:10:45;;;;;;;;;;;;;;;28.16;100.00;100432.22;5106266;28;19955;-47
2023/07/23 08:13:13;;;;;;;;;;;;;;;27.65;100.00;100431.88;5095474;28;19917;-53
2023/07/23 08:15:39;;;;;;;;;;;;;;;27.53;100.00;100435.25;5093623;28;19924;-52
2023/07/23 08:18:05;;;;;;;;;;;;;;;27.81;99.49;100431.41;5095047;28;20082;-51
2023/07/23 08:20:32;;;;;;;;;;;;;;;27.18;100.00;100435.13;5103486;28;19917;-52
2023/07/23 08:22:58;;;;;;;;;;;;;;;27.89;98.45;100452.56;5095665;28;19916;-52
2023/07/23 08:25:24;;;;;;;;;;;;;;;27.00;100.00;100443.31;5094999;28;19931;-48
2023/07/23 08:27:51;;;;;;;;;;;;;;;27.85;97.60;100440.59;5095448;28;19920;-47
2023/07/23 08:30:17;;;;;;;;;;;;;;;27.54;100.00;100436.88;5094722;28;19916;-47
2023/07/23 08:32:42;;;;;;;;;;;;;;;27.22;100.00;100449.84;5103062;28;19943;-47
2023/07/23 08:35:11;;;;;;;;;;;;;;;26.95;100.00;100461.84;5107790;28;19916;-49
2023/07/23 08:37:36;;;;;;;;;;;;;;;27.17;100.00;100444.47;5095506;28;19948;-50
2023/07/23 08:40:02;;;;;;;;;;;;;;;28.09;94.89;100434.59;5096316;28;19916;-50
2023/07/23 08:42:48;;;;;;;;;;;;;;;28.10;93.22;100449.97;5099740;28;19930;-51
2023/07/23 08:45:27;;;;;;;;;;;;;;;27.16;100.00;100437.38;5102096;28;19991;-52
2023/07/23 08:48:03;;;;;;;;;;;;;;;27.32;100.00;100435.00;5094798;28;19938;-52
2023/07/23 08:50:28;;;;;;;;;;;;;;;27.98;96.60;100445.13;5095158;28;19969;-52
2023/07/23 08:52:54;;;;;;;;;;;;;;;27.45;100.00;100441.47;5095181;28;19927;-48
2023/07/23 08:55:20;;;;;;;;;;;;;;;28.91;87.30;100441.28;5098660;28;19991;-50
2023/07/23 08:57:45;;;;;;;;;;;;;;;28.43;94.19;100438.47;5094982;28;19954;-50
2023/07/23 09:00:11;;;;;;;;;;;;;;;27.87;92.74;100439.13;5100404;28;19995;-48
2023/07/23 09:02:39;;;;;;;;;;;;;;;27.98;94.20;100430.59;5097880;28;19916;-52
2023/07/23 09:05:05;;;;;;;;;;;;;;;28.46;88.79;100437.81;5095181;28;19943;-52
2023/07/23 09:07:33;;;;;;;;;;;;;;;28.44;87.54;100440.09;5094378;28;19923;-52
2023/07/23 09:09:58;;;;;;;;;;;;;;;28.54;86.41;100451.88;5094994;28;19954;-50
2023/07/23 09:12:24;;;;;;;;;;;;;;;28.65;85.68;100439.41;5083511;28;19928;-49
2023/07/23 09:14:51;;;;;;;;;;;;;;;28.98;85.48;100441.56;5094951;28;19917;-54
2023/07/23 09:17:18;;;;;;;;;;;;;;;28.81;83.93;100447.13;5094305;28;19916;-49
2023/07/23 09:19:43;;;;;;;;;;;;;;;28.65;85.46;100455.09;5095009;28;19921;-49
2023/07/23 09:22:09;;;;;;;;;;;;;;;28.54;87.54;100452.69;5094555;28;19924;-50
2023/07/23 09:24:34;;;;;;;;;;;;;;;28.88;81.40;100452.94;5099196;28;19970;-50
2023/07/23 09:27:01;;;;;;;;;;;;;;;27.91;94.25;100437.38;5097400;28;19917;-48
2023/07/23 09:29:33;;;;;;;;;;;;;;;28.52;83.18;100452.22;5077381;28;19955;-51
2023/07/23 09:31:59;;;;;;;;;;;;;;;28.04;91.98;100437.53;5107504;28;19916;-53
2023/07/23 09:34:24;;;;;;;;;;;;;;;28.56;88.60;100442.16;5094483;28;19923;-48
2023/07/23 09:36:53;;;;;;;;;;;;;;;27.67;93.45;100461.75;5094363;28;19955;-50
2023/07/23 09:39:18;;;;;;;;;;;;;;;28.09;88.77;100483.28;5094633;28;19935;-52
2023/07/23 09:41:44;;;;;;;;;;;;;;;28.62;86.31;100445.56;5103605;28;19921;-49
2023/07/23 09:44:10;;;;;;;;;;;;;;;29.23;80.12;100452.75;5098150;28;19916;-48
2023/07/23 09:46:37;;;;;;;;;;;;;;;28.56;93.00;100446.84;5098102;28;19931;-53
2023/07/23 09:49:03;;;;;;;;;;;;;;;28.43;96.74;100446.72;5107950;28;19912;-52
2023/07/23 09:51:31;;;;;;;;;;;;;;;28.65;92.02;100461.41;5104005;28;19955;-49
2023/07/23 09:53:59;;;;;;;;;;;;;;;28.91;92.49;100452.28;5090162;28;19943;-52
2023/07/23 09:56:25;;;;;;;;;;;;;;;27.82;100.00;100438.50;5095258;28;19957;-53
2023/07/23 09:58:51;;;;;;;;;;;;;;;27.57;100.00;100449.16;5090989;28;19916;-48
2023/07/23 10:01:17;;;;;;;;;;;;;;;28.47;100.00;100450.44;5098401;28;19952;-50
2023/07/23 10:03:45;;;;;;;;;;;;;;;28.72;100.00;100461.69;5082663;28;19917;-50
2023/07/23 10:06:12;;;;;;;;;;;;;;;27.97;100.00;100448.22;5090576;28;19917;-49
2023/07/23 10:08:42;;;;;;;;;;;;;;;28.38;100.00;100449.66;5098182;28;19980;-54
2023/07/23 10:11:08;;;;;;;;;;;;;;;28.99;100.00;100458.88;5103934;28;19927;-51
2023/07/23 10:13:33;;;;;;;;;;;;;;;28.17;100.00;100457.75;5097992;28;19920;-48
2023/07/23 10:16:00;;;;;;;;;;;;;;;28.91;100.00;100471.53;5095476;28;19946;-53
2023/07/23 10:18:28;;;;;;;;;;;;;;;29.52;94.84;100453.91;5097729;28;19923;-50
2023/07/23 10:20:54;;;;;;;;;;;;;;;28.51;100.00;100452.53;5084591;28;19965;-48
2023/07/23 10:23:21;;;;;;;;;;;;;;;28.62;100.00;100489.56;5097361;28;19934;-50
2023/07/23 10:25:47;;;;;;;;;;;;;;;29.37;98.56;100458.03;5099750;28;19923;-50
2023/07/23 10:28:21;;;;;;;;;;;;;;;28.25;100.00;100478.91;5113342;28;19916;-50
2023/07/23 10:30:46;;;;;;;;;;;;;;;28.91;100.00;100455.81;5099907;28;19920;-53
2023/07/23 10:33:11;;;;;;;;;;;;;;;28.32;100.00;100490.25;5095071;28;19916;-51
2023/07/23 10:35:55;;;;;;;;;;;;;;;28.30;100.00;100447.72;5103534;28;19916;-52
2023/07/23 10:38:21;;;;;;;;;;;;;;;28.55;100.00;100456.25;5084845;28;19917;-52
2023/07/23 10:40:47;;;;;;;;;;;;;;;28.38;100.00;100457.91;5096812;28;19917;-51
2023/07/23 10:43:13;;;;;;;;;;;;;;;28.81;100.00;100469.97;5095310;28;19940;-54
2023/07/23 10:46:00;;;;;;;;;;;;;;;28.61;100.00;100487.94;5096803;28;19948;-55
2023/07/23 10:48:36;;;;;;;;;;;;;;;28.72;100.00;100471.91;5083933;28;19923;-55
2023/07/23 10:51:01;;;;;;;;;;;;;;;28.66;100.00;100457.50;5097374;28;20006;-54
2023/07/23 10:53:30;;;;;;;;;;;;;;;29.31;95.36;100486.91;5096937;28;19920;-53
2023/07/23 10:55:59;;;;;;;;;;;;;;;30.81;82.49;100467.25;5095835;28;19959;-53
2023/07/23 10:58:25;;;;;;;;;;;;;;;30.38;84.22;100480.34;5093773;28;19917;-52
2023/07/23 11:00:54;;;;;;;;;;;;;;;28.83;100.00;100467.69;5092771;28;19938;-50
2023/07/23 11:03:21;;;;;;;;;;;;;;;28.77;100.00;100475.28;5099551;28;19922;-47
2023/07/23 11:05:47;;;;;;;;;;;;;;;29.19;100.00;100468.34;5099907;28;20980;-47
2023/07/23 11:08:19;;;;;;;;;;;;;;;29.26;99.23;100462.31;5096755;28;19928;-49
2023/07/23 11:10:46;;;;;;;;;;;;;;;28.77;100.00;100463.47;5088886;28;19931;-48
2023/07/23 11:13:12;;;;;;;;;;;;;;;29.66;93.09;100472.97;5104874;28;19917;-50
2023/07/23 11:15:38;;;;;;;;;;;;;;;29.90;88.12;100471.50;5102002;28;19980;-52
2023/07/23 11:18:03;;;;;;;;;;;;;;;29.81;92.69;100470.75;5096740;28;19920;-53
2023/07/23 11:20:29;;;;;;;;;;;;;;;30.54;88.39;100468.66;5096763;28;19975;-50
2023/07/23 11:22:57;;;;;;;;;;;;;;;29.71;90.70;100477.47;5096152;28;19961;-53
2023/07/23 11:25:23;;;;;;;;;;;;;;;30.25;90.89;100468.44;5095136;28;19917;-54
2023/07/23 11:27:48;;;;;;;;;;;;;;;31.29;76.61;100470.41;5096397;28;19923;-49
2023/07/23 11:30:14;;;;;;;;;;;;;;;30.64;82.58;100462.72;5095044;28;19984;-51
2023/07/23 11:32:40;;;;;;;;;;;;;;;30.42;84.97;100466.69;5098607;28;19927;-52
2023/07/23 11:35:06;;;;;;;;;;;;;;;30.09;85.71;100459.19;5095839;28;19951;-48
2023/07/23 11:37:31;;;;;;;;;;;;;;;29.61;94.75;100462.94;5103640;28;19923;-52
2023/07/23 11:39:56;;;;;;;;;;;;;;;29.94;88.78;100463.34;5092018;28;19931;-52
2023/07/23 11:42:21;;;;;;;;;;;;;;;29.58;93.61;100474.63;5087498;28;19943;-50
2023/07/23 11:45:03;;;;;;;;;;;;;;;30.23;88.84;100465.22;5091657;28;19920;-51
2023/07/23 11:47:28;;;;;;;;;;;;;;;30.86;82.32;100469.78;5093956;28;19921;-51
2023/07/23 11:49:53;;;;;;;;;;;;;;;31.04;81.69;100469.59;5093815;28;19920;-50
2023/07/23 11:52:23;;;;;;;;;;;;;;;30.34;87.67;100462.84;5093897;28;19921;-48
2023/07/23 11:54:48;;;;;;;;;;;;;;;30.99;81.60;100462.31;5092379;28;19921;-47
2023/07/23 11:57:14;;;;;;;;;;;;;;;30.70;81.61;100461.38;5094809;28;19983;-51
2023/07/23 11:59:39;;;;;;;;;;;;;;;31.54;79.04;100462.06;5091486;28;19917;-54
2023/07/23 12:02:05;;;;;;;;;;;;;;;31.47;77.99;100457.13;5095663;28;19920;-51
2023/07/23 12:04:36;;;;;;;;;;;;;;;30.79;81.56;100460.47;5095085;28;19951;-51
2023/07/23 12:07:02;;;;;;;;;;;;;;;31.44;80.48;100455.06;5098505;28;19934;-52
2023/07/23 12:09:27;;;;;;;;;;;;;;;31.78;74.77;100456.88;5095548;28;19921;-49
2023/07/23 12:11:52;;;;;;;;;;;;;;;30.78;81.39;100443.09;5095398;28;19943;-51
2023/07/23 12:14:17;;;;;;;;;;;;;;;30.63;84.10;100446.53;5094923;28;19991;-49
2023/07/23 12:16:46;;;;;;;;;;;;;;;31.30;78.25;100443.59;5095130;28;19917;-53
2023/07/23 12:19:13;;;;;;;;;;;;;;;31.00;79.54;100441.84;5094694;28;19923;-51
2023/07/23 12:21:39;;;;;;;;;;;;;;;31.13;78.85;100455.63;5094677;28;19924;-52
2023/07/23 12:24:12;;;;;;;;;;;;;;;32.14;73.90;100457.91;5094605;28;19976;-53
2023/07/23 12:26:38;;;;;;;;;;;;;;;33.63;65.44;100461.59;5094817;28;19922;-53
2023/07/23 12:29:04;;;;;;;;;;;;;;;33.57;63.95;100450.81;5095451;28;19920;-50
2023/07/23 12:31:29;;;;;;;;;;;;;;;33.16;67.14;100455.78;5094983;28;19927;-53